Latest Flight | Flight Log | Data Trends | Login | Join FlightData.com!
Flight Info - N595MW (Cirrus SR22 #4359)
Date
Origin
Dest
Depart
Arrive
Hobbs
Flight Time
Ground Time
Flight Distance
Taxi Distance
Fuel
Fuel/hr
Fuel/nm
Altitude
Gnd Speed
Sun, Dec 3, 2017     13:52 13:52 0 hrs 0 hrs (0:00) 0 hrs (0:00) 0 nm 0 nm 26.89 gal 8067 gal/hr 0 gal/nm 0 msl 0 kts
Graph | Increase Sample Rate (1 sec) |
Zoom In: Click and Drag to the right and down. Zoom Out: Click and Drag to the left.
Scroll Chart (while zoomed in): Hold right mouse-button.
Autopilot / COM
AP/FD:
Mode:
COMs:
NAVs:
AP:
FD:
HSI Sel CRS Sel ActvWpt Dist
-NA-
More Flights - N595MW
Sat, Jun 30, 2018 KHPN KHPN 14:00 15:46 1.67 hrs 1.27 hrs 205.18 nm 27.37 gal 16.34 gal/hr 0.13 gal/nm 5555 msl 154 kts
Cruise 14:32:53 14:45:44   12m 51s 35.17 nm 4.29 gal 20 gal/h 0.12 gal/nm 5504 feet 176 kts    
Cruise 15:10:14 15:19:11   8m 57s 24.36 nm 2.84 gal 19 gal/h 0.12 gal/nm 4501 feet 154 kts    
Cruise 15:29:11 15:34:07   4m 56s 13.45 nm 1.57 gal 19 gal/h 0.12 gal/nm 4498 feet 152 kts    
Tue, Feb 21, 2017 KHPN KBWI 08:41 10:22 1.57 hrs 1.26 hrs 210.09 nm 27.28 gal 17.41 gal/hr 0.13 gal/nm 8028 msl 156 kts
Cruise 09:12:42 10:08:33   55m 51s 156.43 nm 17.69 gal 19 gal/h 0.11 gal/nm 8000 feet 159 kts    
Tue, Feb 27, 2018     13:00 13:00 0.01 hrs 0 hrs 0.00 nm 27.09 gal 3750.92 gal/hr 0.00 gal/nm 0 msl 0 kts
Sat, Nov 13, 2021 KCON KCON 16:23 18:49 2.27 hrs 1.46 hrs 205.15 nm 27.03 gal 11.93 gal/hr 0.13 gal/nm 7011 msl 131 kts
Cruise 18:21:12 18:30:46   9m 34s 26.51 nm 2.72 gal 17 gal/h 0.1 gal/nm 4498 feet 164 kts    
Wed, Feb 21, 2018 KHPN KPWM 17:46 19:30 1.65 hrs 1.33 hrs 245.83 nm 26.98 gal 16.34 gal/hr 0.11 gal/nm 11012 msl 177 kts
Cruise 18:21:15 18:32:03   10m 48s 29.57 nm 3.25 gal 18 gal/h 0.11 gal/nm 9001 feet 198 kts    
Cruise 18:41:38 18:55:13   13m 35s 37.63 nm 4.08 gal 18 gal/h 0.11 gal/nm 10996 feet 166 kts    
Cruise 19:04:01 19:07:56   3m 55s 10.69 nm 1.25 gal 19 gal/h 0.12 gal/nm 8991 feet 210 kts    
Sun, Sep 17, 2017 KIAD KHPN 17:40 19:40 1.91 hrs 1.44 hrs 232.42 nm 26.95 gal 14.12 gal/hr 0.12 gal/nm 5021 msl 155 kts
Cruise 18:21:01 19:13:11   52m 10s 140.03 nm 13.05 gal 15 gal/h 0.09 gal/nm 5000 feet 157 kts    
Cruise 19:21:37 19:25:53   4m 16s 11.64 nm 1.36 gal 19 gal/h 0.12 gal/nm 3000 feet 158 kts    
Sun, Dec 3, 2017     13:52 13:52 0 hrs 0 hrs 0.00 nm 26.89 gal 8067.00 gal/hr 0.00 gal/nm 0 msl 0 kts
Mon, Oct 2, 2017 KHPN KBTV 13:56 15:31 1.51 hrs 1.28 hrs 206.10 nm 26.70 gal 17.70 gal/hr 0.13 gal/nm 7521 msl 153 kts
Cruise 14:24:54 15:18:10   53m 16s 147.42 nm 16.87 gal 19 gal/h 0.11 gal/nm 7500 feet 157 kts    
Thu, Oct 20, 2016 KHPN KBWI 09:52 11:32 1.56 hrs 1.3 hrs 205.54 nm 26.67 gal 17.15 gal/hr 0.13 gal/nm 8008 msl 147 kts
Cruise 10:23:19 11:13:58   50m 39s 139.33 nm 15.2 gal 18 gal/h 0.11 gal/nm 7999 feet 146 kts    
Sun, Jun 19, 2016 KHYA KHPN 11:34 13:06 1.45 hrs 1.18 hrs 193.06 nm 26.51 gal 18.22 gal/hr 0.14 gal/nm 6520 msl 155 kts
Cruise 11:51:26 11:57:03   5m 37s 16.15 nm 2.25 gal 24 gal/h 0.14 gal/nm 2915 feet 164 kts    
Cruise 12:27:08 12:40:08   13m 00s 36.88 nm 4.34 gal 20 gal/h 0.12 gal/nm 6500 feet 164 kts    
Cruise 12:45:32 12:51:51   6m 19s 17.84 nm 2.11 gal 20 gal/h 0.12 gal/nm 6494 feet 165 kts    
Mon, Feb 19, 2018 1B9 KHPN 14:25 15:58 1.48 hrs 1.27 hrs 172.89 nm 26.39 gal 17.84 gal/hr 0.15 gal/nm 8009 msl 129 kts
Cruise 14:49:13 15:09:28   20m 15s 56.07 nm 6.42 gal 19 gal/h 0.11 gal/nm 7999 feet 125 kts    
Cruise 15:22:13 15:24:25   2m 12s 6.17 nm 0.7 gal 19 gal/h 0.11 gal/nm 5991 feet 124 kts    
Cruise 15:33:03 15:42:27   9m 24s 25.9 nm 2.98 gal 19 gal/h 0.12 gal/nm 3998 feet 145 kts    
Sun, Jul 16, 2017     13:57 13:57 0 hrs 0 hrs 0.00 nm 26.31 gal 7893.00 gal/hr 0.00 gal/nm 0 msl 0 kts
Sun, Mar 12, 2017     14:30 14:31 0.01 hrs 0 hrs 0.00 nm 26.27 gal 3782.88 gal/hr 0.00 gal/nm 0 msl 0 kts
Complete Flight Log (1236)
FlightData.com is sponsored by AEROCOR